Ludlow, Pennsylvania
Current Conditions -  °F | °C
As of 2:53 PM on Wednesday 17 Dec 2014 (Local Time) from KBFD Reporting Station
Unknown Precip Unknown Precip  
Wind Chill: 21°   Ceiling: 1300
Heat Index: 30°   Visibility: 8mi
Dew Point: 24°   Wind: 10mph
Humidity: 79%   Direction: 270°W
Pressure: 29.91"   Gusts: 22mph
Location:  41.73°N, 78.94°W
Report Text: KBFD 171953Z AUTO 27009G19KT 8SM UP OVC013 M01/M04 A2991 RMK AO2 UPB16SNE16 SLP145 P0001 T10111044
Loading
Personal Weather Stations






























Interactive Weather Map New forecast layout! Learn more

10-Day Weather Forecast

Advertisements
Track Severe Weather on mobile